sensor_id;sensor_type;location;lat;lon;timestamp;temperature;humidity
1702;DHT22;848;48.354;10.064;2024-02-15T00:00:15;8.80;99.90
1702;DHT22;848;48.354;10.064;2024-02-15T00:02:43;8.80;99.90
1702;DHT22;848;48.354;10.064;2024-02-15T00:05:12;8.70;99.90
1702;DHT22;848;48.354;10.064;2024-02-15T00:07:40;8.80;99.90
1702;DHT22;848;48.354;10.064;2024-02-15T00:10:08;8.70;99.90
1702;DHT22;848;48.354;10.064;2024-02-15T00:12:35;8.60;99.90
1702;DHT22;848;48.354;10.064;2024-02-15T00:15:02;8.50;99.90
1702;DHT22;848;48.354;10.064;2024-02-15T00:17:29;8.40;99.90
1702;DHT22;848;48.354;10.064;2024-02-15T00:19:58;8.30;99.90
1702;DHT22;848;48.354;10.064;2024-02-15T00:22:27;8.30;99.90
1702;DHT22;848;48.354;10.064;2024-02-15T00:24:55;8.30;99.90
1702;DHT22;848;48.354;10.064;2024-02-15T00:27:22;8.20;99.90
1702;DHT22;848;48.354;10.064;2024-02-15T00:29:48;8.10;99.90
1702;DHT22;848;48.354;10.064;2024-02-15T00:32:15;8.10;99.90
1702;DHT22;848;48.354;10.064;2024-02-15T00:34:42;8.00;99.90
1702;DHT22;848;48.354;10.064;2024-02-15T00:37:09;7.90;99.90
1702;DHT22;848;48.354;10.064;2024-02-15T00:39:36;7.80;99.90
1702;DHT22;848;48.354;10.064;2024-02-15T00:42:04;7.60;99.90
1702;DHT22;848;48.354;10.064;2024-02-15T00:44:34;7.50;99.90
1702;DHT22;848;48.354;10.064;2024-02-15T00:47:01;7.50;99.90
1702;DHT22;848;48.354;10.064;2024-02-15T00:49:28;7.50;99.90
1702;DHT22;848;48.354;10.064;2024-02-15T00:51:55;7.50;99.90
1702;DHT22;848;48.354;10.064;2024-02-15T00:54:21;6.90;99.90
1702;DHT22;848;48.354;10.064;2024-02-15T00:56:51;7.40;99.90
1702;DHT22;848;48.354;10.064;2024-02-15T00:59:18;7.30;99.90
1702;DHT22;848;48.354;10.064;2024-02-15T01:01:45;7.20;99.90
1702;DHT22;848;48.354;10.064;2024-02-15T01:04:13;7.20;99.90
1702;DHT22;848;48.354;10.064;2024-02-15T01:06:40;7.40;99.90
1702;DHT22;848;48.354;10.064;2024-02-15T01:09:08;7.20;99.90
1702;DHT22;848;48.354;10.064;2024-02-15T01:11:35;7.10;99.90
1702;DHT22;848;48.354;10.064;2024-02-15T01:14:04;6.90;99.90
1702;DHT22;848;48.354;10.064;2024-02-15T01:16:34;6.90;99.90
1702;DHT22;848;48.354;10.064;2024-02-15T01:19:01;6.60;99.90
1702;DHT22;848;48.354;10.064;2024-02-15T01:21:28;6.40;99.90
1702;DHT22;848;48.354;10.064;2024-02-15T01:23:55;6.40;99.90
1702;DHT22;848;48.354;10.064;2024-02-15T01:26:22;6.30;99.90
1702;DHT22;848;48.354;10.064;2024-02-15T01:28:49;6.20;99.90
1702;DHT22;848;48.354;10.064;2024-02-15T01:31:17;6.10;99.90
1702;DHT22;848;48.354;10.064;2024-02-15T01:33:44;6.10;99.90
1702;DHT22;848;48.354;10.064;2024-02-15T01:36:14;6.10;99.90
1702;DHT22;848;48.354;10.064;2024-02-15T01:38:42;6.10;99.90
1702;DHT22;848;48.354;10.064;2024-02-15T01:41:09;6.20;99.90
1702;DHT22;848;48.354;10.064;2024-02-15T01:43:35;6.30;99.90
1702;DHT22;848;48.354;10.064;2024-02-15T01:46:08;6.40;99.90
1702;DHT22;848;48.354;10.064;2024-02-15T01:48:37;6.40;99.90
1702;DHT22;848;48.354;10.064;2024-02-15T01:51:09;6.30;99.90
1702;DHT22;848;48.354;10.064;2024-02-15T01:53:38;6.40;99.90
1702;DHT22;848;48.354;10.064;2024-02-15T01:56:07;6.40;99.90
1702;DHT22;848;48.354;10.064;2024-02-15T01:58:34;6.40;99.90
1702;DHT22;848;48.354;10.064;2024-02-15T02:01:02;6.40;99.90
1702;DHT22;848;48.354;10.064;2024-02-15T02:03:29;6.50;99.90
1702;DHT22;848;48.354;10.064;2024-02-15T02:05:58;6.60;99.90
1702;DHT22;848;48.354;10.064;2024-02-15T02:08:25;6.50;99.90
1702;DHT22;848;48.354;10.064;2024-02-15T02:10:52;6.50;99.90
1702;DHT22;848;48.354;10.064;2024-02-15T02:13:19;6.50;99.90
1702;DHT22;848;48.354;10.064;2024-02-15T02:15:46;6.50;99.90
1702;DHT22;848;48.354;10.064;2024-02-15T02:18:13;6.60;99.90
1702;DHT22;848;48.354;10.064;2024-02-15T02:20:40;6.60;99.90
1702;DHT22;848;48.354;10.064;2024-02-15T02:23:14;6.70;99.90
1702;DHT22;848;48.354;10.064;2024-02-15T02:25:43;6.70;99.90
1702;DHT22;848;48.354;10.064;2024-02-15T02:28:12;6.80;99.90
1702;DHT22;848;48.354;10.064;2024-02-15T02:30:39;6.90;99.90
1702;DHT22;848;48.354;10.064;2024-02-15T02:33:10;6.90;99.90
1702;DHT22;848;48.354;10.064;2024-02-15T02:35:44;7.10;99.90
1702;DHT22;848;48.354;10.064;2024-02-15T02:38:12;7.10;99.90
1702;DHT22;848;48.354;10.064;2024-02-15T02:40:40;6.90;99.90
1702;DHT22;848;48.354;10.064;2024-02-15T02:43:08;7.00;99.90
1702;DHT22;848;48.354;10.064;2024-02-15T02:45:35;7.10;99.90
1702;DHT22;848;48.354;10.064;2024-02-15T02:48:02;7.00;99.90
1702;DHT22;848;48.354;10.064;2024-02-15T02:50:29;7.10;99.90
1702;DHT22;848;48.354;10.064;2024-02-15T02:52:56;7.10;99.90
1702;DHT22;848;48.354;10.064;2024-02-15T02:55:23;7.00;99.90
1702;DHT22;848;48.354;10.064;2024-02-15T02:57:52;7.00;99.90
1702;DHT22;848;48.354;10.064;2024-02-15T03:00:22;6.90;99.90
1702;DHT22;848;48.354;10.064;2024-02-15T03:02:49;6.90;99.90
1702;DHT22;848;48.354;10.064;2024-02-15T03:05:16;7.00;99.90
1702;DHT22;848;48.354;10.064;2024-02-15T03:07:46;6.80;99.90
1702;DHT22;848;48.354;10.064;2024-02-15T03:10:13;6.70;99.90
1702;DHT22;848;48.354;10.064;2024-02-15T03:12:40;6.60;99.90
1702;DHT22;848;48.354;10.064;2024-02-15T03:15:09;6.50;99.90
1702;DHT22;848;48.354;10.064;2024-02-15T03:17:39;6.30;99.90
1702;DHT22;848;48.354;10.064;2024-02-15T03:20:08;6.30;99.90
1702;DHT22;848;48.354;10.064;2024-02-15T03:22:37;6.40;99.90
1702;DHT22;848;48.354;10.064;2024-02-15T03:25:05;6.40;99.90
1702;DHT22;848;48.354;10.064;2024-02-15T03:27:33;6.50;99.90
1702;DHT22;848;48.354;10.064;2024-02-15T03:30:01;6.60;99.90
1702;DHT22;848;48.354;10.064;2024-02-15T03:32:29;6.70;99.90
1702;DHT22;848;48.354;10.064;2024-02-15T03:34:57;6.80;99.90
1702;DHT22;848;48.354;10.064;2024-02-15T03:37:26;7.00;99.90
1702;DHT22;848;48.354;10.064;2024-02-15T03:39:53;7.20;99.90
1702;DHT22;848;48.354;10.064;2024-02-15T03:42:20;7.30;99.90
1702;DHT22;848;48.354;10.064;2024-02-15T03:44:47;7.30;99.90
1702;DHT22;848;48.354;10.064;2024-02-15T03:47:14;7.40;99.90
1702;DHT22;848;48.354;10.064;2024-02-15T03:49:41;7.40;99.90
1702;DHT22;848;48.354;10.064;2024-02-15T03:52:09;7.40;99.90
1702;DHT22;848;48.354;10.064;2024-02-15T03:54:37;7.50;99.90
1702;DHT22;848;48.354;10.064;2024-02-15T03:57:04;7.50;99.90
1702;DHT22;848;48.354;10.064;2024-02-15T03:59:32;7.60;99.90
1702;DHT22;848;48.354;10.064;2024-02-15T04:02:00;7.60;99.90
1702;DHT22;848;48.354;10.064;2024-02-15T04:04:28;7.50;99.90
1702;DHT22;848;48.354;10.064;2024-02-15T04:06:55;7.50;99.90
1702;DHT22;848;48.354;10.064;2024-02-15T04:09:25;7.50;99.90
1702;DHT22;848;48.354;10.064;2024-02-15T04:11:52;7.40;99.90
1702;DHT22;848;48.354;10.064;2024-02-15T04:14:19;7.40;99.90
1702;DHT22;848;48.354;10.064;2024-02-15T04:16:46;7.30;99.90
1702;DHT22;848;48.354;10.064;2024-02-15T04:19:13;7.20;99.90
1702;DHT22;848;48.354;10.064;2024-02-15T04:21:40;7.20;99.90
1702;DHT22;848;48.354;10.064;2024-02-15T04:24:09;7.10;99.90
1702;DHT22;848;48.354;10.064;2024-02-15T04:26:37;7.00;99.90
1702;DHT22;848;48.354;10.064;2024-02-15T04:29:04;6.90;99.90
1702;DHT22;848;48.354;10.064;2024-02-15T04:31:33;6.80;99.90
1702;DHT22;848;48.354;10.064;2024-02-15T04:34:02;6.80;99.90
1702;DHT22;848;48.354;10.064;2024-02-15T04:36:29;6.70;99.90
1702;DHT22;848;48.354;10.064;2024-02-15T04:39:00;6.60;99.90
1702;DHT22;848;48.354;10.064;2024-02-15T04:41:28;6.50;99.90
1702;DHT22;848;48.354;10.064;2024-02-15T04:43:56;6.50;99.90
1702;DHT22;848;48.354;10.064;2024-02-15T04:46:23;6.30;99.90
1702;DHT22;848;48.354;10.064;2024-02-15T04:48:51;6.10;99.90
1702;DHT22;848;48.354;10.064;2024-02-15T04:51:18;6.00;99.90
1702;DHT22;848;48.354;10.064;2024-02-15T04:53:45;6.00;99.90
1702;DHT22;848;48.354;10.064;2024-02-15T04:56:13;5.90;99.90
1702;DHT22;848;48.354;10.064;2024-02-15T04:58:42;5.90;99.90
1702;DHT22;848;48.354;10.064;2024-02-15T05:01:14;6.00;99.90
1702;DHT22;848;48.354;10.064;2024-02-15T05:03:42;6.10;99.90
1702;DHT22;848;48.354;10.064;2024-02-15T05:06:09;6.10;99.90
1702;DHT22;848;48.354;10.064;2024-02-15T05:08:38;6.00;99.90
1702;DHT22;848;48.354;10.064;2024-02-15T05:11:08;5.90;99.90
1702;DHT22;848;48.354;10.064;2024-02-15T05:13:38;5.80;99.90
1702;DHT22;848;48.354;10.064;2024-02-15T05:16:06;5.70;99.90
1702;DHT22;848;48.354;10.064;2024-02-15T05:18:34;5.60;99.90
1702;DHT22;848;48.354;10.064;2024-02-15T05:21:01;5.30;99.90
1702;DHT22;848;48.354;10.064;2024-02-15T05:23:29;5.20;99.90
1702;DHT22;848;48.354;10.064;2024-02-15T05:25:56;5.30;99.90
1702;DHT22;848;48.354;10.064;2024-02-15T05:28:23;5.40;99.90
1702;DHT22;848;48.354;10.064;2024-02-15T05:31:09;5.40;99.90
1702;DHT22;848;48.354;10.064;2024-02-15T05:33:38;5.40;99.90
1702;DHT22;848;48.354;10.064;2024-02-15T05:36:08;5.30;99.90
1702;DHT22;848;48.354;10.064;2024-02-15T05:38:36;5.30;99.90
1702;DHT22;848;48.354;10.064;2024-02-15T05:41:03;5.20;99.90
1702;DHT22;848;48.354;10.064;2024-02-15T05:43:30;5.10;99.90
1702;DHT22;848;48.354;10.064;2024-02-15T05:45:57;5.20;99.90
1702;DHT22;848;48.354;10.064;2024-02-15T05:48:26;5.20;99.90
1702;DHT22;848;48.354;10.064;2024-02-15T05:50:55;5.30;99.90
1702;DHT22;848;48.354;10.064;2024-02-15T05:53:22;5.30;99.90
1702;DHT22;848;48.354;10.064;2024-02-15T05:55:49;5.30;99.90
1702;DHT22;848;48.354;10.064;2024-02-15T05:58:16;5.30;99.90
1702;DHT22;848;48.354;10.064;2024-02-15T06:00:43;5.30;99.90
1702;DHT22;848;48.354;10.064;2024-02-15T06:03:15;5.20;99.90
1702;DHT22;848;48.354;10.064;2024-02-15T06:05:42;5.30;99.90
1702;DHT22;848;48.354;10.064;2024-02-15T06:08:11;5.40;99.90
1702;DHT22;848;48.354;10.064;2024-02-15T06:10:38;5.40;99.90
1702;DHT22;848;48.354;10.064;2024-02-15T06:13:05;5.30;99.90
1702;DHT22;848;48.354;10.064;2024-02-15T06:15:34;5.40;99.90
1702;DHT22;848;48.354;10.064;2024-02-15T06:18:01;5.50;99.90
1702;DHT22;848;48.354;10.064;2024-02-15T06:20:29;5.50;99.90
1702;DHT22;848;48.354;10.064;2024-02-15T06:22:57;5.60;99.90
1702;DHT22;848;48.354;10.064;2024-02-15T06:25:25;5.60;99.90
1702;DHT22;848;48.354;10.064;2024-02-15T06:27:52;5.70;99.90
1702;DHT22;848;48.354;10.064;2024-02-15T06:30:25;5.60;99.90
1702;DHT22;848;48.354;10.064;2024-02-15T06:33:09;5.50;99.90
1702;DHT22;848;48.354;10.064;2024-02-15T06:35:53;5.50;99.90
1702;DHT22;848;48.354;10.064;2024-02-15T06:38:37;5.40;99.90
1702;DHT22;848;48.354;10.064;2024-02-15T06:41:23;5.40;99.90
1702;DHT22;848;48.354;10.064;2024-02-15T06:43:50;5.50;99.90
1702;DHT22;848;48.354;10.064;2024-02-15T06:46:17;5.30;99.90
1702;DHT22;848;48.354;10.064;2024-02-15T06:48:45;5.40;99.90
1702;DHT22;848;48.354;10.064;2024-02-15T06:51:12;5.20;99.90
1702;DHT22;848;48.354;10.064;2024-02-15T06:53:40;5.40;99.90
1702;DHT22;848;48.354;10.064;2024-02-15T06:56:08;5.40;99.90
1702;DHT22;848;48.354;10.064;2024-02-15T06:58:37;5.50;99.90
1702;DHT22;848;48.354;10.064;2024-02-15T07:01:05;5.50;99.90
1702;DHT22;848;48.354;10.064;2024-02-15T07:03:33;5.80;99.90
1702;DHT22;848;48.354;10.064;2024-02-15T07:06:00;5.80;99.90
1702;DHT22;848;48.354;10.064;2024-02-15T07:08:28;5.80;99.90
1702;DHT22;848;48.354;10.064;2024-02-15T07:10:55;5.90;99.90
1702;DHT22;848;48.354;10.064;2024-02-15T07:13:22;5.90;99.90
1702;DHT22;848;48.354;10.064;2024-02-15T07:15:50;5.90;99.90
1702;DHT22;848;48.354;10.064;2024-02-15T07:18:17;6.00;99.90
1702;DHT22;848;48.354;10.064;2024-02-15T07:20:46;5.90;99.90
1702;DHT22;848;48.354;10.064;2024-02-15T07:23:12;5.90;99.90
1702;DHT22;848;48.354;10.064;2024-02-15T07:25:40;6.00;99.90
1702;DHT22;848;48.354;10.064;2024-02-15T07:28:06;6.00;99.90
1702;DHT22;848;48.354;10.064;2024-02-15T07:30:34;6.10;99.90
1702;DHT22;848;48.354;10.064;2024-02-15T07:33:03;6.10;99.90
1702;DHT22;848;48.354;10.064;2024-02-15T07:35:32;6.10;99.90
1702;DHT22;848;48.354;10.064;2024-02-15T07:38:00;6.10;99.90
1702;DHT22;848;48.354;10.064;2024-02-15T07:40:28;6.10;99.90
1702;DHT22;848;48.354;10.064;2024-02-15T07:42:56;6.10;99.90
1702;DHT22;848;48.354;10.064;2024-02-15T07:45:23;6.20;99.90
1702;DHT22;848;48.354;10.064;2024-02-15T07:47:50;6.20;99.90
1702;DHT22;848;48.354;10.064;2024-02-15T07:50:18;6.20;99.90
1702;DHT22;848;48.354;10.064;2024-02-15T07:52:49;6.20;99.90
1702;DHT22;848;48.354;10.064;2024-02-15T07:55:16;6.30;99.90
1702;DHT22;848;48.354;10.064;2024-02-15T07:57:43;6.40;99.90
1702;DHT22;848;48.354;10.064;2024-02-15T08:00:12;6.60;99.90
1702;DHT22;848;48.354;10.064;2024-02-15T08:02:42;6.70;99.90
1702;DHT22;848;48.354;10.064;2024-02-15T08:05:09;6.80;99.90
1702;DHT22;848;48.354;10.064;2024-02-15T08:07:41;7.00;99.90
1702;DHT22;848;48.354;10.064;2024-02-15T08:10:10;7.10;99.90
1702;DHT22;848;48.354;10.064;2024-02-15T08:12:39;7.30;99.90
1702;DHT22;848;48.354;10.064;2024-02-15T08:15:07;7.50;99.90
1702;DHT22;848;48.354;10.064;2024-02-15T08:17:40;7.50;99.90
1702;DHT22;848;48.354;10.064;2024-02-15T08:20:09;7.50;99.90
1702;DHT22;848;48.354;10.064;2024-02-15T08:22:36;7.60;99.90
1702;DHT22;848;48.354;10.064;2024-02-15T08:25:07;7.70;99.90
1702;DHT22;848;48.354;10.064;2024-02-15T08:27:39;7.80;99.90
1702;DHT22;848;48.354;10.064;2024-02-15T08:30:09;7.90;99.90
1702;DHT22;848;48.354;10.064;2024-02-15T08:32:37;7.90;99.90
1702;DHT22;848;48.354;10.064;2024-02-15T08:35:05;8.00;99.90
1702;DHT22;848;48.354;10.064;2024-02-15T08:37:34;8.10;99.90
1702;DHT22;848;48.354;10.064;2024-02-15T08:40:01;8.20;99.90
1702;DHT22;848;48.354;10.064;2024-02-15T08:42:29;8.30;99.90
1702;DHT22;848;48.354;10.064;2024-02-15T08:44:57;8.40;99.90
1702;DHT22;848;48.354;10.064;2024-02-15T08:47:24;8.40;99.90
1702;DHT22;848;48.354;10.064;2024-02-15T08:49:52;8.50;99.90
1702;DHT22;848;48.354;10.064;2024-02-15T08:52:19;8.50;99.90
1702;DHT22;848;48.354;10.064;2024-02-15T08:54:46;8.60;99.90
1702;DHT22;848;48.354;10.064;2024-02-15T08:57:13;8.60;99.90
1702;DHT22;848;48.354;10.064;2024-02-15T08:59:41;8.60;99.90
1702;DHT22;848;48.354;10.064;2024-02-15T09:02:08;8.60;99.90
1702;DHT22;848;48.354;10.064;2024-02-15T09:04:35;8.70;99.90
1702;DHT22;848;48.354;10.064;2024-02-15T09:07:02;8.80;99.90
1702;DHT22;848;48.354;10.064;2024-02-15T09:09:30;8.90;99.90
1702;DHT22;848;48.354;10.064;2024-02-15T09:11:57;8.90;99.90
1702;DHT22;848;48.354;10.064;2024-02-15T09:14:24;9.00;99.90
1702;DHT22;848;48.354;10.064;2024-02-15T09:16:52;9.10;99.90
1702;DHT22;848;48.354;10.064;2024-02-15T09:19:19;9.10;99.90
1702;DHT22;848;48.354;10.064;2024-02-15T09:21:46;9.10;99.90
1702;DHT22;848;48.354;10.064;2024-02-15T09:24:13;9.30;99.90
1702;DHT22;848;48.354;10.064;2024-02-15T09:26:41;9.30;99.90
1702;DHT22;848;48.354;10.064;2024-02-15T09:29:09;9.40;99.90
1702;DHT22;848;48.354;10.064;2024-02-15T09:31:38;9.40;99.90
1702;DHT22;848;48.354;10.064;2024-02-15T09:34:07;9.50;99.90
1702;DHT22;848;48.354;10.064;2024-02-15T09:36:34;9.60;99.90
1702;DHT22;848;48.354;10.064;2024-02-15T09:39:03;9.70;99.90
1702;DHT22;848;48.354;10.064;2024-02-15T09:41:30;9.80;99.90
1702;DHT22;848;48.354;10.064;2024-02-15T09:43:58;9.80;99.90
1702;DHT22;848;48.354;10.064;2024-02-15T09:46:25;9.80;99.90
1702;DHT22;848;48.354;10.064;2024-02-15T09:48:56;9.90;99.90
1702;DHT22;848;48.354;10.064;2024-02-15T09:51:27;9.90;99.90
1702;DHT22;848;48.354;10.064;2024-02-15T09:53:57;10.00;99.90
1702;DHT22;848;48.354;10.064;2024-02-15T09:56:24;10.10;99.90
1702;DHT22;848;48.354;10.064;2024-02-15T09:58:54;10.30;99.90
1702;DHT22;848;48.354;10.064;2024-02-15T10:01:23;10.20;99.90
1702;DHT22;848;48.354;10.064;2024-02-15T10:03:50;10.40;99.90
1702;DHT22;848;48.354;10.064;2024-02-15T10:06:17;10.40;99.90
1702;DHT22;848;48.354;10.064;2024-02-15T10:08:46;10.40;99.90
1702;DHT22;848;48.354;10.064;2024-02-15T10:11:13;10.50;99.90
1702;DHT22;848;48.354;10.064;2024-02-15T10:13:41;10.60;99.90
1702;DHT22;848;48.354;10.064;2024-02-15T10:16:16;10.60;99.90
1702;DHT22;848;48.354;10.064;2024-02-15T10:18:44;10.60;99.90
1702;DHT22;848;48.354;10.064;2024-02-15T10:21:24;10.60;99.90
1702;DHT22;848;48.354;10.064;2024-02-15T10:24:04;10.70;99.90
1702;DHT22;848;48.354;10.064;2024-02-15T10:26:32;10.80;99.90
1702;DHT22;848;48.354;10.064;2024-02-15T10:29:07;10.90;99.90
1702;DHT22;848;48.354;10.064;2024-02-15T10:31:36;11.10;99.90
1702;DHT22;848;48.354;10.064;2024-02-15T10:34:05;11.20;99.90
1702;DHT22;848;48.354;10.064;2024-02-15T10:36:33;11.20;99.90
1702;DHT22;848;48.354;10.064;2024-02-15T10:39:15;11.30;99.90
1702;DHT22;848;48.354;10.064;2024-02-15T10:41:46;11.30;99.90
1702;DHT22;848;48.354;10.064;2024-02-15T10:44:17;11.40;99.90
1702;DHT22;848;48.354;10.064;2024-02-15T10:46:45;11.40;99.90
1702;DHT22;848;48.354;10.064;2024-02-15T10:49:17;11.40;99.90
1702;DHT22;848;48.354;10.064;2024-02-15T10:51:44;11.50;99.90
1702;DHT22;848;48.354;10.064;2024-02-15T10:54:23;11.60;99.90
1702;DHT22;848;48.354;10.064;2024-02-15T10:57:02;11.60;99.90
1702;DHT22;848;48.354;10.064;2024-02-15T10:59:33;11.70;99.90
1702;DHT22;848;48.354;10.064;2024-02-15T11:02:12;11.80;99.90
1702;DHT22;848;48.354;10.064;2024-02-15T11:04:43;11.90;99.90
1702;DHT22;848;48.354;10.064;2024-02-15T11:07:11;12.00;99.90
1702;DHT22;848;48.354;10.064;2024-02-15T11:09:40;12.00;99.90
1702;DHT22;848;48.354;10.064;2024-02-15T11:12:08;12.10;99.90
1702;DHT22;848;48.354;10.064;2024-02-15T11:14:36;12.00;99.90
1702;DHT22;848;48.354;10.064;2024-02-15T11:17:04;12.20;99.90
1702;DHT22;848;48.354;10.064;2024-02-15T11:19:44;12.10;99.90
1702;DHT22;848;48.354;10.064;2024-02-15T11:22:13;12.10;99.90
1702;DHT22;848;48.354;10.064;2024-02-15T11:24:49;12.20;99.90
1702;DHT22;848;48.354;10.064;2024-02-15T11:27:27;12.30;99.90
1702;DHT22;848;48.354;10.064;2024-02-15T11:29:55;12.30;99.90
1702;DHT22;848;48.354;10.064;2024-02-15T11:32:51;12.40;99.90
1702;DHT22;848;48.354;10.064;2024-02-15T11:35:19;12.40;99.90
1702;DHT22;848;48.354;10.064;2024-02-15T11:37:56;12.30;99.90
1702;DHT22;848;48.354;10.064;2024-02-15T11:40:28;12.30;99.90
1702;DHT22;848;48.354;10.064;2024-02-15T11:42:57;12.20;99.90
1702;DHT22;848;48.354;10.064;2024-02-15T11:45:25;12.20;99.90
1702;DHT22;848;48.354;10.064;2024-02-15T11:47:58;12.40;99.90
1702;DHT22;848;48.354;10.064;2024-02-15T11:50:27;12.40;99.90
1702;DHT22;848;48.354;10.064;2024-02-15T11:53:02;12.50;99.90
1702;DHT22;848;48.354;10.064;2024-02-15T11:55:32;12.50;99.90
1702;DHT22;848;48.354;10.064;2024-02-15T11:58:02;12.40;99.90
1702;DHT22;848;48.354;10.064;2024-02-15T12:00:31;12.40;99.90
1702;DHT22;848;48.354;10.064;2024-02-15T12:03:17;12.40;99.90
1702;DHT22;848;48.354;10.064;2024-02-15T12:06:01;12.40;99.90
1702;DHT22;848;48.354;10.064;2024-02-15T12:08:54;12.50;99.90
1702;DHT22;848;48.354;10.064;2024-02-15T12:11:40;12.80;99.90
1702;DHT22;848;48.354;10.064;2024-02-15T12:14:24;12.90;99.90
1702;DHT22;848;48.354;10.064;2024-02-15T12:17:11;13.00;99.90
1702;DHT22;848;48.354;10.064;2024-02-15T12:19:59;13.10;99.90
1702;DHT22;848;48.354;10.064;2024-02-15T12:22:28;13.20;99.90
1702;DHT22;848;48.354;10.064;2024-02-15T12:24:56;13.10;99.90
1702;DHT22;848;48.354;10.064;2024-02-15T12:27:26;13.10;99.90
1702;DHT22;848;48.354;10.064;2024-02-15T12:29:55;13.10;99.90
1702;DHT22;848;48.354;10.064;2024-02-15T12:32:23;13.10;99.90
1702;DHT22;848;48.354;10.064;2024-02-15T12:34:51;13.20;99.90
1702;DHT22;848;48.354;10.064;2024-02-15T12:37:18;13.20;99.90
1702;DHT22;848;48.354;10.064;2024-02-15T12:39:47;13.20;99.90
1702;DHT22;848;48.354;10.064;2024-02-15T12:42:14;13.10;99.90
1702;DHT22;848;48.354;10.064;2024-02-15T12:44:46;13.00;99.90
1702;DHT22;848;48.354;10.064;2024-02-15T12:47:22;12.90;99.90
1702;DHT22;848;48.354;10.064;2024-02-15T12:49:50;13.00;99.90
1702;DHT22;848;48.354;10.064;2024-02-15T12:52:34;13.00;99.90
1702;DHT22;848;48.354;10.064;2024-02-15T12:55:15;13.00;99.90
1702;DHT22;848;48.354;10.064;2024-02-15T12:57:43;13.00;99.90
1702;DHT22;848;48.354;10.064;2024-02-15T13:00:17;13.10;99.90
1702;DHT22;848;48.354;10.064;2024-02-15T13:02:45;13.10;99.90
1702;DHT22;848;48.354;10.064;2024-02-15T13:05:14;13.30;99.90
1702;DHT22;848;48.354;10.064;2024-02-15T13:07:44;13.30;99.90
1702;DHT22;848;48.354;10.064;2024-02-15T13:10:11;13.30;99.90
1702;DHT22;848;48.354;10.064;2024-02-15T13:12:40;13.30;99.90
1702;DHT22;848;48.354;10.064;2024-02-15T13:15:10;13.30;99.90
1702;DHT22;848;48.354;10.064;2024-02-15T13:17:44;13.30;99.90
1702;DHT22;848;48.354;10.064;2024-02-15T13:20:11;13.30;99.90
1702;DHT22;848;48.354;10.064;2024-02-15T13:22:39;13.30;99.90
1702;DHT22;848;48.354;10.064;2024-02-15T13:25:07;13.20;99.90
1702;DHT22;848;48.354;10.064;2024-02-15T13:27:34;13.30;99.90
1702;DHT22;848;48.354;10.064;2024-02-15T13:30:03;13.20;99.90
1702;DHT22;848;48.354;10.064;2024-02-15T13:32:34;13.20;99.90
1702;DHT22;848;48.354;10.064;2024-02-15T13:35:03;13.30;99.90
1702;DHT22;848;48.354;10.064;2024-02-15T13:37:39;13.40;99.90
1702;DHT22;848;48.354;10.064;2024-02-15T13:40:09;13.40;99.90
1702;DHT22;848;48.354;10.064;2024-02-15T13:42:41;13.40;99.90
1702;DHT22;848;48.354;10.064;2024-02-15T13:45:12;13.50;99.90
1702;DHT22;848;48.354;10.064;2024-02-15T13:47:40;13.50;99.90
1702;DHT22;848;48.354;10.064;2024-02-15T13:50:08;13.40;99.90
1702;DHT22;848;48.354;10.064;2024-02-15T13:52:39;13.40;99.90
1702;DHT22;848;48.354;10.064;2024-02-15T13:55:09;13.50;99.90
1702;DHT22;848;48.354;10.064;2024-02-15T13:57:38;13.50;99.90
1702;DHT22;848;48.354;10.064;2024-02-15T14:00:06;13.50;99.90
1702;DHT22;848;48.354;10.064;2024-02-15T14:02:39;13.50;99.90
1702;DHT22;848;48.354;10.064;2024-02-15T14:05:10;13.60;99.90
1702;DHT22;848;48.354;10.064;2024-02-15T14:07:38;13.60;99.90
1702;DHT22;848;48.354;10.064;2024-02-15T14:10:06;13.60;99.90
1702;DHT22;848;48.354;10.064;2024-02-15T14:12:33;13.70;99.90
1702;DHT22;848;48.354;10.064;2024-02-15T14:15:00;13.70;99.90
1702;DHT22;848;48.354;10.064;2024-02-15T14:17:28;13.70;99.90
1702;DHT22;848;48.354;10.064;2024-02-15T14:19:54;13.70;99.90
1702;DHT22;848;48.354;10.064;2024-02-15T14:22:24;13.70;99.90
1702;DHT22;848;48.354;10.064;2024-02-15T14:24:55;13.80;99.90
1702;DHT22;848;48.354;10.064;2024-02-15T14:27:22;13.70;99.90
1702;DHT22;848;48.354;10.064;2024-02-15T14:29:48;13.70;99.90
1702;DHT22;848;48.354;10.064;2024-02-15T14:32:29;13.70;99.90
1702;DHT22;848;48.354;10.064;2024-02-15T14:35:25;13.70;99.90
1702;DHT22;848;48.354;10.064;2024-02-15T14:37:53;13.70;99.90
1702;DHT22;848;48.354;10.064;2024-02-15T14:40:21;13.70;99.90
1702;DHT22;848;48.354;10.064;2024-02-15T14:42:48;13.60;99.90
1702;DHT22;848;48.354;10.064;2024-02-15T14:45:15;13.60;99.90
1702;DHT22;848;48.354;10.064;2024-02-15T14:47:42;13.60;99.90
1702;DHT22;848;48.354;10.064;2024-02-15T14:50:09;13.70;99.90
1702;DHT22;848;48.354;10.064;2024-02-15T14:52:39;13.70;99.90
1702;DHT22;848;48.354;10.064;2024-02-15T14:55:08;13.80;99.90
1702;DHT22;848;48.354;10.064;2024-02-15T14:57:34;13.80;99.90
1702;DHT22;848;48.354;10.064;2024-02-15T15:00:03;13.80;99.90
1702;DHT22;848;48.354;10.064;2024-02-15T15:02:31;13.70;99.90
1702;DHT22;848;48.354;10.064;2024-02-15T15:04:57;13.70;99.90
1702;DHT22;848;48.354;10.064;2024-02-15T15:07:46;13.70;99.90
1702;DHT22;848;48.354;10.064;2024-02-15T15:10:31;13.70;99.90
1702;DHT22;848;48.354;10.064;2024-02-15T15:13:16;13.70;99.90
1702;DHT22;848;48.354;10.064;2024-02-15T15:15:44;13.70;99.90
1702;DHT22;848;48.354;10.064;2024-02-15T15:18:12;13.60;99.90
1702;DHT22;848;48.354;10.064;2024-02-15T15:20:39;13.60;99.90
1702;DHT22;848;48.354;10.064;2024-02-15T15:23:06;13.70;99.90
1702;DHT22;848;48.354;10.064;2024-02-15T15:25:34;13.60;99.90
1702;DHT22;848;48.354;10.064;2024-02-15T15:28:03;13.60;99.90
1702;DHT22;848;48.354;10.064;2024-02-15T15:30:30;13.60;99.90
1702;DHT22;848;48.354;10.064;2024-02-15T15:32:57;13.60;99.90
1702;DHT22;848;48.354;10.064;2024-02-15T15:35:26;13.50;99.90
1702;DHT22;848;48.354;10.064;2024-02-15T15:37:53;13.50;99.90
1702;DHT22;848;48.354;10.064;2024-02-15T15:40:20;13.40;99.90
1702;DHT22;848;48.354;10.064;2024-02-15T15:42:49;13.40;99.90
1702;DHT22;848;48.354;10.064;2024-02-15T15:45:16;13.30;99.90
1702;DHT22;848;48.354;10.064;2024-02-15T15:47:42;13.30;99.90
1702;DHT22;848;48.354;10.064;2024-02-15T15:50:09;13.20;99.90
1702;DHT22;848;48.354;10.064;2024-02-15T15:52:37;13.10;99.90
1702;DHT22;848;48.354;10.064;2024-02-15T15:55:07;13.00;99.90
1702;DHT22;848;48.354;10.064;2024-02-15T15:57:37;12.90;99.90
1702;DHT22;848;48.354;10.064;2024-02-15T16:00:06;12.90;99.90
1702;DHT22;848;48.354;10.064;2024-02-15T16:02:38;12.80;99.90
1702;DHT22;848;48.354;10.064;2024-02-15T16:05:06;12.70;99.90
1702;DHT22;848;48.354;10.064;2024-02-15T16:07:33;12.60;99.90
1702;DHT22;848;48.354;10.064;2024-02-15T16:10:00;12.50;99.90
1702;DHT22;848;48.354;10.064;2024-02-15T16:12:28;12.50;99.90
1702;DHT22;848;48.354;10.064;2024-02-15T16:14:54;12.40;99.90
1702;DHT22;848;48.354;10.064;2024-02-15T16:17:23;12.30;99.90
1702;DHT22;848;48.354;10.064;2024-02-15T16:19:50;12.30;99.90
1702;DHT22;848;48.354;10.064;2024-02-15T16:22:17;12.20;99.90
1702;DHT22;848;48.354;10.064;2024-02-15T16:24:43;12.10;99.90